sensor_id;sensor_type;location;lat;lon;timestamp;temperature;humidity
15543;DHT22;7873;52.230;12.856;2023-03-02T00:01:20;25.10;33.80
15543;DHT22;7873;52.230;12.856;2023-03-02T00:03:49;25.30;33.40
15543;DHT22;7873;52.230;12.856;2023-03-02T00:06:16;25.40;32.90
15543;DHT22;7873;52.230;12.856;2023-03-02T00:08:44;25.60;32.90
15543;DHT22;7873;52.230;12.856;2023-03-02T00:11:12;25.70;32.50
15543;DHT22;7873;52.230;12.856;2023-03-02T00:13:40;25.70;32.80
15543;DHT22;7873;52.230;12.856;2023-03-02T00:16:07;25.70;32.60
15543;DHT22;7873;52.230;12.856;2023-03-02T00:18:34;25.60;32.80
15543;DHT22;7873;52.230;12.856;2023-03-02T00:21:00;25.60;32.60
15543;DHT22;7873;52.230;12.856;2023-03-02T00:23:27;25.50;33.10
15543;DHT22;7873;52.230;12.856;2023-03-02T00:25:55;25.40;33.30
15543;DHT22;7873;52.230;12.856;2023-03-02T00:28:22;25.30;33.20
15543;DHT22;7873;52.230;12.856;2023-03-02T00:30:48;25.20;33.60
15543;DHT22;7873;52.230;12.856;2023-03-02T00:33:15;25.00;33.90
15543;DHT22;7873;52.230;12.856;2023-03-02T00:35:41;24.90;34.20
15543;DHT22;7873;52.230;12.856;2023-03-02T00:38:08;24.70;34.50
15543;DHT22;7873;52.230;12.856;2023-03-02T00:40:35;24.60;34.70
15543;DHT22;7873;52.230;12.856;2023-03-02T00:43:03;24.50;34.90
15543;DHT22;7873;52.230;12.856;2023-03-02T00:45:29;24.50;34.90
15543;DHT22;7873;52.230;12.856;2023-03-02T00:47:56;24.50;34.90
15543;DHT22;7873;52.230;12.856;2023-03-02T00:50:23;24.50;35.00
15543;DHT22;7873;52.230;12.856;2023-03-02T00:52:49;24.40;35.00
15543;DHT22;7873;52.230;12.856;2023-03-02T00:55:16;24.50;35.00
15543;DHT22;7873;52.230;12.856;2023-03-02T00:57:43;24.60;34.70
15543;DHT22;7873;52.230;12.856;2023-03-02T01:00:21;24.60;34.60
15543;DHT22;7873;52.230;12.856;2023-03-02T01:02:48;24.70;34.30
15543;DHT22;7873;52.230;12.856;2023-03-02T01:05:15;24.80;34.30
15543;DHT22;7873;52.230;12.856;2023-03-02T01:07:42;24.70;34.60
15543;DHT22;7873;52.230;12.856;2023-03-02T01:10:09;24.70;34.50
15543;DHT22;7873;52.230;12.856;2023-03-02T01:12:36;24.70;34.50
15543;DHT22;7873;52.230;12.856;2023-03-02T01:15:04;24.80;34.40
15543;DHT22;7873;52.230;12.856;2023-03-02T01:17:33;24.80;34.20
15543;DHT22;7873;52.230;12.856;2023-03-02T01:19:59;24.80;34.20
15543;DHT22;7873;52.230;12.856;2023-03-02T01:22:26;24.80;34.20
15543;DHT22;7873;52.230;12.856;2023-03-02T01:24:53;24.80;34.20
15543;DHT22;7873;52.230;12.856;2023-03-02T01:27:19;24.70;34.50
15543;DHT22;7873;52.230;12.856;2023-03-02T01:29:46;24.60;34.70
15543;DHT22;7873;52.230;12.856;2023-03-02T01:32:14;24.40;35.00
15543;DHT22;7873;52.230;12.856;2023-03-02T01:34:42;24.40;35.20
15543;DHT22;7873;52.230;12.856;2023-03-02T01:37:09;24.30;35.20
15543;DHT22;7873;52.230;12.856;2023-03-02T01:39:36;24.20;35.20
15543;DHT22;7873;52.230;12.856;2023-03-02T01:42:03;24.20;35.20
15543;DHT22;7873;52.230;12.856;2023-03-02T01:44:34;24.20;35.40
15543;DHT22;7873;52.230;12.856;2023-03-02T01:47:03;24.20;35.40
15543;DHT22;7873;52.230;12.856;2023-03-02T01:49:38;24.10;35.40
15543;DHT22;7873;52.230;12.856;2023-03-02T01:52:10;24.00;35.60
15543;DHT22;7873;52.230;12.856;2023-03-02T01:54:37;23.90;35.70
15543;DHT22;7873;52.230;12.856;2023-03-02T01:57:05;23.90;35.80
15543;DHT22;7873;52.230;12.856;2023-03-02T01:59:34;23.80;35.80
15543;DHT22;7873;52.230;12.856;2023-03-02T02:02:04;23.80;35.90
15543;DHT22;7873;52.230;12.856;2023-03-02T02:04:33;23.80;35.90
15543;DHT22;7873;52.230;12.856;2023-03-02T02:07:04;23.90;36.00
15543;DHT22;7873;52.230;12.856;2023-03-02T02:09:34;23.90;35.80
15543;DHT22;7873;52.230;12.856;2023-03-02T02:12:04;23.90;35.60
15543;DHT22;7873;52.230;12.856;2023-03-02T02:14:31;23.90;35.40
15543;DHT22;7873;52.230;12.856;2023-03-02T02:16:58;24.00;35.50
15543;DHT22;7873;52.230;12.856;2023-03-02T02:19:30;23.90;35.60
15543;DHT22;7873;52.230;12.856;2023-03-02T02:22:02;23.90;35.40
15543;DHT22;7873;52.230;12.856;2023-03-02T02:24:30;23.90;35.70
15543;DHT22;7873;52.230;12.856;2023-03-02T02:27:05;23.90;35.80
15543;DHT22;7873;52.230;12.856;2023-03-02T02:29:33;23.90;35.60
15543;DHT22;7873;52.230;12.856;2023-03-02T02:32:02;23.80;36.40
15543;DHT22;7873;52.230;12.856;2023-03-02T02:34:37;23.80;35.80
15543;DHT22;7873;52.230;12.856;2023-03-02T02:37:07;23.70;35.80
15543;DHT22;7873;52.230;12.856;2023-03-02T02:39:40;23.60;35.90
15543;DHT22;7873;52.230;12.856;2023-03-02T02:42:12;23.60;35.90
15543;DHT22;7873;52.230;12.856;2023-03-02T02:44:42;23.50;35.90
15543;DHT22;7873;52.230;12.856;2023-03-02T02:47:12;23.50;36.10
15543;DHT22;7873;52.230;12.856;2023-03-02T02:49:41;23.40;36.10
15543;DHT22;7873;52.230;12.856;2023-03-02T02:52:09;23.40;36.30
15543;DHT22;7873;52.230;12.856;2023-03-02T02:54:40;23.30;36.30
15543;DHT22;7873;52.230;12.856;2023-03-02T02:57:08;23.20;36.40
15543;DHT22;7873;52.230;12.856;2023-03-02T02:59:40;23.20;36.40
15543;DHT22;7873;52.230;12.856;2023-03-02T03:02:11;23.20;36.40
15543;DHT22;7873;52.230;12.856;2023-03-02T03:04:43;23.20;36.40
15543;DHT22;7873;52.230;12.856;2023-03-02T03:07:12;23.20;36.30
15543;DHT22;7873;52.230;12.856;2023-03-02T03:09:42;23.20;36.40
15543;DHT22;7873;52.230;12.856;2023-03-02T03:12:12;23.30;36.30
15543;DHT22;7873;52.230;12.856;2023-03-02T03:14:43;23.30;36.10
15543;DHT22;7873;52.230;12.856;2023-03-02T03:17:10;23.40;36.10
15543;DHT22;7873;52.230;12.856;2023-03-02T03:19:38;23.40;36.00
15543;DHT22;7873;52.230;12.856;2023-03-02T03:22:06;23.40;35.90
15543;DHT22;7873;52.230;12.856;2023-03-02T03:24:36;23.50;35.80
15543;DHT22;7873;52.230;12.856;2023-03-02T03:27:03;23.50;35.80
15543;DHT22;7873;52.230;12.856;2023-03-02T03:29:32;23.50;36.00
15543;DHT22;7873;52.230;12.856;2023-03-02T03:32:01;23.40;35.90
15543;DHT22;7873;52.230;12.856;2023-03-02T03:34:29;23.40;36.00
15543;DHT22;7873;52.230;12.856;2023-03-02T03:36:57;23.30;36.00
15543;DHT22;7873;52.230;12.856;2023-03-02T03:39:26;23.30;36.10
15543;DHT22;7873;52.230;12.856;2023-03-02T03:41:53;23.20;36.20
15543;DHT22;7873;52.230;12.856;2023-03-02T03:44:19;23.20;36.40
15543;DHT22;7873;52.230;12.856;2023-03-02T03:46:46;23.10;36.40
15543;DHT22;7873;52.230;12.856;2023-03-02T03:49:14;23.10;36.50
15543;DHT22;7873;52.230;12.856;2023-03-02T03:51:41;23.00;36.60
15543;DHT22;7873;52.230;12.856;2023-03-02T03:54:08;23.00;36.70
15543;DHT22;7873;52.230;12.856;2023-03-02T03:56:36;23.00;36.80
15543;DHT22;7873;52.230;12.856;2023-03-02T03:59:05;22.90;36.90
15543;DHT22;7873;52.230;12.856;2023-03-02T04:01:34;22.90;37.00
15543;DHT22;7873;52.230;12.856;2023-03-02T04:04:02;22.90;37.00
15543;DHT22;7873;52.230;12.856;2023-03-02T04:06:31;22.80;37.10
15543;DHT22;7873;52.230;12.856;2023-03-02T04:08:58;22.80;37.10
15543;DHT22;7873;52.230;12.856;2023-03-02T04:11:29;22.80;37.10
15543;DHT22;7873;52.230;12.856;2023-03-02T04:13:55;22.80;37.10
15543;DHT22;7873;52.230;12.856;2023-03-02T04:16:22;22.80;37.00
15543;DHT22;7873;52.230;12.856;2023-03-02T04:18:49;23.00;36.60
15543;DHT22;7873;52.230;12.856;2023-03-02T04:21:16;23.00;36.80
15543;DHT22;7873;52.230;12.856;2023-03-02T04:23:45;23.00;36.70
15543;DHT22;7873;52.230;12.856;2023-03-02T04:26:12;23.10;36.50
15543;DHT22;7873;52.230;12.856;2023-03-02T04:28:39;23.20;36.50
15543;DHT22;7873;52.230;12.856;2023-03-02T04:31:05;23.30;36.10
15543;DHT22;7873;52.230;12.856;2023-03-02T04:33:32;23.40;36.00
15543;DHT22;7873;52.230;12.856;2023-03-02T04:35:59;23.40;36.00
15543;DHT22;7873;52.230;12.856;2023-03-02T04:38:26;23.50;35.90
15543;DHT22;7873;52.230;12.856;2023-03-02T04:40:55;23.40;35.90
15543;DHT22;7873;52.230;12.856;2023-03-02T04:43:22;23.40;36.80
15543;DHT22;7873;52.230;12.856;2023-03-02T04:45:49;23.40;35.90
15543;DHT22;7873;52.230;12.856;2023-03-02T04:48:16;23.50;35.70
15543;DHT22;7873;52.230;12.856;2023-03-02T04:50:43;23.20;33.40
15543;DHT22;7873;52.230;12.856;2023-03-02T04:53:10;23.10;33.40
15543;DHT22;7873;52.230;12.856;2023-03-02T04:55:37;23.20;33.10
15543;DHT22;7873;52.230;12.856;2023-03-02T04:58:06;23.30;32.50
15543;DHT22;7873;52.230;12.856;2023-03-02T05:00:33;23.40;32.60
15543;DHT22;7873;52.230;12.856;2023-03-02T05:03:00;23.50;33.10
15543;DHT22;7873;52.230;12.856;2023-03-02T05:05:27;23.50;32.80
15543;DHT22;7873;52.230;12.856;2023-03-02T05:07:54;23.40;32.90
15543;DHT22;7873;52.230;12.856;2023-03-02T05:10:22;23.40;32.90
15543;DHT22;7873;52.230;12.856;2023-03-02T05:12:50;23.40;33.40
15543;DHT22;7873;52.230;12.856;2023-03-02T05:15:24;23.40;32.60
15543;DHT22;7873;52.230;12.856;2023-03-02T05:17:53;23.40;32.50
15543;DHT22;7873;52.230;12.856;2023-03-02T05:20:20;23.30;33.20
15543;DHT22;7873;52.230;12.856;2023-03-02T05:22:52;23.20;32.80
15543;DHT22;7873;52.230;12.856;2023-03-02T05:25:21;23.10;33.60
15543;DHT22;7873;52.230;12.856;2023-03-02T05:27:49;23.20;31.80
15543;DHT22;7873;52.230;12.856;2023-03-02T05:30:17;23.10;29.50
15543;DHT22;7873;52.230;12.856;2023-03-02T05:32:45;23.00;30.20
15543;DHT22;7873;52.230;12.856;2023-03-02T05:35:12;22.80;29.00
15543;DHT22;7873;52.230;12.856;2023-03-02T05:37:39;22.50;30.20
15543;DHT22;7873;52.230;12.856;2023-03-02T05:40:10;22.50;30.40
15543;DHT22;7873;52.230;12.856;2023-03-02T05:42:38;22.40;30.90
15543;DHT22;7873;52.230;12.856;2023-03-02T05:45:05;22.30;30.70
15543;DHT22;7873;52.230;12.856;2023-03-02T05:47:34;22.40;29.80
15543;DHT22;7873;52.230;12.856;2023-03-02T05:50:02;22.20;30.80
15543;DHT22;7873;52.230;12.856;2023-03-02T05:52:29;22.10;31.00
15543;DHT22;7873;52.230;12.856;2023-03-02T05:54:56;22.10;31.10
15543;DHT22;7873;52.230;12.856;2023-03-02T05:57:22;22.10;31.90
15543;DHT22;7873;52.230;12.856;2023-03-02T05:59:49;22.30;31.90
15543;DHT22;7873;52.230;12.856;2023-03-02T06:02:16;22.40;31.70
15543;DHT22;7873;52.230;12.856;2023-03-02T06:04:43;22.20;32.30
15543;DHT22;7873;52.230;12.856;2023-03-02T06:07:11;22.20;32.30
15543;DHT22;7873;52.230;12.856;2023-03-02T06:12:42;22.00;32.00
15543;DHT22;7873;52.230;12.856;2023-03-02T06:15:08;21.90;32.00
15543;DHT22;7873;52.230;12.856;2023-03-02T06:20:21;21.80;32.80
15543;DHT22;7873;52.230;12.856;2023-03-02T06:22:50;21.70;33.00
15543;DHT22;7873;52.230;12.856;2023-03-02T06:25:18;21.70;33.20
15543;DHT22;7873;52.230;12.856;2023-03-02T06:27:46;21.60;33.40
15543;DHT22;7873;52.230;12.856;2023-03-02T06:30:15;21.60;33.50
15543;DHT22;7873;52.230;12.856;2023-03-02T06:32:43;21.60;33.60
15543;DHT22;7873;52.230;12.856;2023-03-02T06:35:10;21.50;33.70
15543;DHT22;7873;52.230;12.856;2023-03-02T06:37:38;21.50;33.70
15543;DHT22;7873;52.230;12.856;2023-03-02T06:40:07;21.50;33.80
15543;DHT22;7873;52.230;12.856;2023-03-02T06:42:36;21.50;33.80
15543;DHT22;7873;52.230;12.856;2023-03-02T06:45:04;21.50;33.90
15543;DHT22;7873;52.230;12.856;2023-03-02T06:47:32;21.50;34.00
15543;DHT22;7873;52.230;12.856;2023-03-02T06:49:59;21.50;34.00
15543;DHT22;7873;52.230;12.856;2023-03-02T06:52:26;21.50;34.00
15543;DHT22;7873;52.230;12.856;2023-03-02T06:54:52;21.50;34.00
15543;DHT22;7873;52.230;12.856;2023-03-02T06:57:20;21.40;34.00
15543;DHT22;7873;52.230;12.856;2023-03-02T06:59:47;21.40;34.10
15543;DHT22;7873;52.230;12.856;2023-03-02T07:02:14;21.40;34.10
15543;DHT22;7873;52.230;12.856;2023-03-02T07:04:40;21.40;34.10
15543;DHT22;7873;52.230;12.856;2023-03-02T07:07:07;21.40;34.10
15543;DHT22;7873;52.230;12.856;2023-03-02T07:09:34;21.40;34.10
15543;DHT22;7873;52.230;12.856;2023-03-02T07:12:03;21.40;34.10
15543;DHT22;7873;52.230;12.856;2023-03-02T07:14:33;21.40;34.20
15543;DHT22;7873;52.230;12.856;2023-03-02T07:17:02;21.40;34.20
15543;DHT22;7873;52.230;12.856;2023-03-02T07:19:29;21.40;34.20
15543;DHT22;7873;52.230;12.856;2023-03-02T07:21:56;21.40;34.20
15543;DHT22;7873;52.230;12.856;2023-03-02T07:24:22;21.40;34.20
15543;DHT22;7873;52.230;12.856;2023-03-02T07:26:49;21.40;34.20
15543;DHT22;7873;52.230;12.856;2023-03-02T07:29:16;21.40;34.20
15543;DHT22;7873;52.230;12.856;2023-03-02T07:31:44;21.30;34.20
15543;DHT22;7873;52.230;12.856;2023-03-02T07:34:10;21.30;34.20
15543;DHT22;7873;52.230;12.856;2023-03-02T07:36:37;21.30;34.20
15543;DHT22;7873;52.230;12.856;2023-03-02T07:39:04;21.30;34.40
15543;DHT22;7873;52.230;12.856;2023-03-02T07:41:30;21.30;34.40
15543;DHT22;7873;52.230;12.856;2023-03-02T07:43:57;21.30;34.40
15543;DHT22;7873;52.230;12.856;2023-03-02T07:46:24;21.30;34.40
15543;DHT22;7873;52.230;12.856;2023-03-02T07:48:52;21.30;34.40
15543;DHT22;7873;52.230;12.856;2023-03-02T07:51:18;21.30;34.40
15543;DHT22;7873;52.230;12.856;2023-03-02T07:53:45;21.20;34.40
15543;DHT22;7873;52.230;12.856;2023-03-02T07:56:12;21.30;34.40
15543;DHT22;7873;52.230;12.856;2023-03-02T07:58:38;21.30;34.40
15543;DHT22;7873;52.230;12.856;2023-03-02T08:01:05;21.20;34.50
15543;DHT22;7873;52.230;12.856;2023-03-02T08:03:32;21.20;34.50
15543;DHT22;7873;52.230;12.856;2023-03-02T08:06:03;21.30;34.50
15543;DHT22;7873;52.230;12.856;2023-03-02T08:08:31;21.20;34.50
15543;DHT22;7873;52.230;12.856;2023-03-02T08:11:02;21.20;34.40
15543;DHT22;7873;52.230;12.856;2023-03-02T08:13:29;21.30;34.40
15543;DHT22;7873;52.230;12.856;2023-03-02T08:15:59;21.20;34.40
15543;DHT22;7873;52.230;12.856;2023-03-02T08:18:26;21.30;34.40
15543;DHT22;7873;52.230;12.856;2023-03-02T08:20:53;21.20;34.50
15543;DHT22;7873;52.230;12.856;2023-03-02T08:23:21;21.20;34.50
15543;DHT22;7873;52.230;12.856;2023-03-02T08:25:48;21.20;34.50
15543;DHT22;7873;52.230;12.856;2023-03-02T08:28:15;21.20;34.50
15543;DHT22;7873;52.230;12.856;2023-03-02T08:30:42;21.20;34.50
15543;DHT22;7873;52.230;12.856;2023-03-02T08:33:08;21.20;34.60
15543;DHT22;7873;52.230;12.856;2023-03-02T08:35:35;21.20;34.60
15543;DHT22;7873;52.230;12.856;2023-03-02T08:38:02;21.20;34.60
15543;DHT22;7873;52.230;12.856;2023-03-02T08:40:30;21.20;34.50
15543;DHT22;7873;52.230;12.856;2023-03-02T08:42:56;21.20;35.10
15543;DHT22;7873;52.230;12.856;2023-03-02T08:45:24;21.20;34.40
15543;DHT22;7873;52.230;12.856;2023-03-02T08:47:51;21.20;34.50
15543;DHT22;7873;52.230;12.856;2023-03-02T08:50:18;21.20;34.50
15543;DHT22;7873;52.230;12.856;2023-03-02T08:52:44;21.20;34.30
15543;DHT22;7873;52.230;12.856;2023-03-02T08:55:11;21.30;34.20
15543;DHT22;7873;52.230;12.856;2023-03-02T08:57:39;21.20;34.30
15543;DHT22;7873;52.230;12.856;2023-03-02T09:00:07;21.20;34.40
15543;DHT22;7873;52.230;12.856;2023-03-02T09:02:39;21.30;34.20
15543;DHT22;7873;52.230;12.856;2023-03-02T09:05:05;21.30;34.10
15543;DHT22;7873;52.230;12.856;2023-03-02T09:07:33;21.40;34.10
15543;DHT22;7873;52.230;12.856;2023-03-02T09:09:59;21.40;34.10
15543;DHT22;7873;52.230;12.856;2023-03-02T09:12:26;21.40;34.00
15543;DHT22;7873;52.230;12.856;2023-03-02T09:14:54;21.40;33.90
15543;DHT22;7873;52.230;12.856;2023-03-02T09:17:21;21.40;33.90
15543;DHT22;7873;52.230;12.856;2023-03-02T09:19:47;21.40;33.90
15543;DHT22;7873;52.230;12.856;2023-03-02T09:22:14;21.40;33.80
15543;DHT22;7873;52.230;12.856;2023-03-02T09:24:41;21.40;33.90
15543;DHT22;7873;52.230;12.856;2023-03-02T09:27:07;21.40;33.80
15543;DHT22;7873;52.230;12.856;2023-03-02T09:29:34;21.40;33.80
15543;DHT22;7873;52.230;12.856;2023-03-02T09:32:02;21.40;33.90
15543;DHT22;7873;52.230;12.856;2023-03-02T09:34:29;21.40;33.80
15543;DHT22;7873;52.230;12.856;2023-03-02T09:36:56;21.40;33.80
15543;DHT22;7873;52.230;12.856;2023-03-02T09:39:22;21.40;33.80
15543;DHT22;7873;52.230;12.856;2023-03-02T09:44:41;21.30;33.90
15543;DHT22;7873;52.230;12.856;2023-03-02T09:47:21;21.30;33.80
15543;DHT22;7873;52.230;12.856;2023-03-02T09:49:54;21.30;33.90
15543;DHT22;7873;52.230;12.856;2023-03-02T09:52:27;21.30;33.80
15543;DHT22;7873;52.230;12.856;2023-03-02T09:54:57;21.30;33.80
15543;DHT22;7873;52.230;12.856;2023-03-02T09:57:28;21.40;33.80
15543;DHT22;7873;52.230;12.856;2023-03-02T09:59:58;21.30;33.80
15543;DHT22;7873;52.230;12.856;2023-03-02T10:02:30;21.30;33.80
15543;DHT22;7873;52.230;12.856;2023-03-02T10:05:01;21.30;33.80
15543;DHT22;7873;52.230;12.856;2023-03-02T10:07:31;21.30;33.80
15543;DHT22;7873;52.230;12.856;2023-03-02T10:10:03;21.30;33.80
15543;DHT22;7873;52.230;12.856;2023-03-02T10:12:40;21.30;33.80
15543;DHT22;7873;52.230;12.856;2023-03-02T10:15:16;21.30;33.70
15543;DHT22;7873;52.230;12.856;2023-03-02T10:17:54;21.30;33.80
15543;DHT22;7873;52.230;12.856;2023-03-02T10:20:26;21.30;33.80
15543;DHT22;7873;52.230;12.856;2023-03-02T10:22:58;21.20;33.80
15543;DHT22;7873;52.230;12.856;2023-03-02T10:25:35;21.30;33.90
15543;DHT22;7873;52.230;12.856;2023-03-02T10:28:09;21.30;33.80
15543;DHT22;7873;52.230;12.856;2023-03-02T10:30:41;21.30;33.80
15543;DHT22;7873;52.230;12.856;2023-03-02T10:33:12;21.30;33.80
15543;DHT22;7873;52.230;12.856;2023-03-02T10:35:43;21.30;33.80
15543;DHT22;7873;52.230;12.856;2023-03-02T10:38:13;21.20;33.90
15543;DHT22;7873;52.230;12.856;2023-03-02T10:40:42;21.20;33.90
15543;DHT22;7873;52.230;12.856;2023-03-02T10:43:13;21.30;33.80
15543;DHT22;7873;52.230;12.856;2023-03-02T10:45:43;21.20;33.80
15543;DHT22;7873;52.230;12.856;2023-03-02T10:48:11;21.20;33.90
15543;DHT22;7873;52.230;12.856;2023-03-02T10:50:41;21.20;33.80
15543;DHT22;7873;52.230;12.856;2023-03-02T10:53:14;21.20;33.80
15543;DHT22;7873;52.230;12.856;2023-03-02T10:55:43;21.20;33.90
15543;DHT22;7873;52.230;12.856;2023-03-02T10:58:18;21.10;33.90
15543;DHT22;7873;52.230;12.856;2023-03-02T11:00:57;21.20;33.90
15543;DHT22;7873;52.230;12.856;2023-03-02T11:03:26;21.20;33.90
15543;DHT22;7873;52.230;12.856;2023-03-02T11:05:54;21.20;34.60
15543;DHT22;7873;52.230;12.856;2023-03-02T11:08:21;21.20;33.80
15543;DHT22;7873;52.230;12.856;2023-03-02T11:10:50;21.20;33.80
15543;DHT22;7873;52.230;12.856;2023-03-02T11:13:23;21.20;33.90
15543;DHT22;7873;52.230;12.856;2023-03-02T11:15:53;21.10;33.90
15543;DHT22;7873;52.230;12.856;2023-03-02T11:18:26;21.10;33.90
15543;DHT22;7873;52.230;12.856;2023-03-02T11:20:56;21.10;33.90
15543;DHT22;7873;52.230;12.856;2023-03-02T11:23:29;21.10;33.90
15543;DHT22;7873;52.230;12.856;2023-03-02T11:26:04;21.10;33.90
15543;DHT22;7873;52.230;12.856;2023-03-02T11:28:40;21.10;34.00
15543;DHT22;7873;52.230;12.856;2023-03-02T11:31:14;21.10;34.00
15543;DHT22;7873;52.230;12.856;2023-03-02T11:33:52;21.10;34.70
15543;DHT22;7873;52.230;12.856;2023-03-02T11:36:34;21.10;33.90
15543;DHT22;7873;52.230;12.856;2023-03-02T11:39:10;21.10;34.00
15543;DHT22;7873;52.230;12.856;2023-03-02T11:41:40;21.10;33.90
15543;DHT22;7873;52.230;12.856;2023-03-02T11:44:11;21.10;34.00
15543;DHT22;7873;52.230;12.856;2023-03-02T11:46:41;21.10;33.90
15543;DHT22;7873;52.230;12.856;2023-03-02T11:49:13;21.10;34.00
15543;DHT22;7873;52.230;12.856;2023-03-02T11:51:46;21.10;33.90
15543;DHT22;7873;52.230;12.856;2023-03-02T11:54:22;21.10;33.90
15543;DHT22;7873;52.230;12.856;2023-03-02T11:56:58;21.10;34.00
15543;DHT22;7873;52.230;12.856;2023-03-02T11:59:25;21.10;33.90
15543;DHT22;7873;52.230;12.856;2023-03-02T12:01:53;21.00;34.00
15543;DHT22;7873;52.230;12.856;2023-03-02T12:04:26;21.00;34.10
15543;DHT22;7873;52.230;12.856;2023-03-02T12:06:56;21.00;34.00
15543;DHT22;7873;52.230;12.856;2023-03-02T12:09:26;21.10;34.00
15543;DHT22;7873;52.230;12.856;2023-03-02T12:12:09;21.10;34.00
15543;DHT22;7873;52.230;12.856;2023-03-02T12:14:42;21.00;34.00
15543;DHT22;7873;52.230;12.856;2023-03-02T12:17:19;21.00;34.00
15543;DHT22;7873;52.230;12.856;2023-03-02T12:20:07;21.00;34.00
15543;DHT22;7873;52.230;12.856;2023-03-02T12:22:46;21.00;34.20
15543;DHT22;7873;52.230;12.856;2023-03-02T12:25:24;21.00;34.20
15543;DHT22;7873;52.230;12.856;2023-03-02T12:27:53;20.90;34.40
15543;DHT22;7873;52.230;12.856;2023-03-02T12:30:22;20.90;34.30
15543;DHT22;7873;52.230;12.856;2023-03-02T12:32:59;20.90;34.20
15543;DHT22;7873;52.230;12.856;2023-03-02T12:35:41;20.90;34.20
15543;DHT22;7873;52.230;12.856;2023-03-02T12:38:15;20.80;34.40
15543;DHT22;7873;52.230;12.856;2023-03-02T12:40:52;20.90;34.50
15543;DHT22;7873;52.230;12.856;2023-03-02T12:43:38;20.90;34.40
15543;DHT22;7873;52.230;12.856;2023-03-02T12:48:58;20.80;34.50
15543;DHT22;7873;52.230;12.856;2023-03-02T12:51:31;20.70;34.80
15543;DHT22;7873;52.230;12.856;2023-03-02T12:54:11;20.60;35.00
15543;DHT22;7873;52.230;12.856;2023-03-02T12:56:39;20.60;35.30
15543;DHT22;7873;52.230;12.856;2023-03-02T12:59:06;20.60;35.30
15543;DHT22;7873;52.230;12.856;2023-03-02T13:01:43;20.50;35.40
15543;DHT22;7873;52.230;12.856;2023-03-02T13:04:18;20.50;35.30
15543;DHT22;7873;52.230;12.856;2023-03-02T13:06:47;20.50;35.50
15543;DHT22;7873;52.230;12.856;2023-03-02T13:09:14;20.40;35.60
15543;DHT22;7873;52.230;12.856;2023-03-02T13:11:42;20.40;35.60
15543;DHT22;7873;52.230;12.856;2023-03-02T13:14:19;20.40;35.70
15543;DHT22;7873;52.230;12.856;2023-03-02T13:16:54;20.40;35.60
15543;DHT22;7873;52.230;12.856;2023-03-02T13:19:22;20.40;35.60
15543;DHT22;7873;52.230;12.856;2023-03-02T13:21:51;20.50;35.60
15543;DHT22;7873;52.230;12.856;2023-03-02T13:24:24;20.50;35.60
15543;DHT22;7873;52.230;12.856;2023-03-02T13:26:53;20.50;35.60
15543;DHT22;7873;52.230;12.856;2023-03-02T13:29:23;20.50;35.50
15543;DHT22;7873;52.230;12.856;2023-03-02T13:31:51;20.60;35.40
15543;DHT22;7873;52.230;12.856;2023-03-02T13:34:22;20.60;35.30
15543;DHT22;7873;52.230;12.856;2023-03-02T13:36:52;20.60;35.20
15543;DHT22;7873;52.230;12.856;2023-03-02T13:39:20;20.60;35.20
15543;DHT22;7873;52.230;12.856;2023-03-02T13:41:51;20.60;35.20
15543;DHT22;7873;52.230;12.856;2023-03-02T13:44:20;20.60;35.20
15543;DHT22;7873;52.230;12.856;2023-03-02T13:46:51;20.60;35.30
15543;DHT22;7873;52.230;12.856;2023-03-02T13:49:24;20.50;35.30
15543;DHT22;7873;52.230;12.856;2023-03-02T13:51:57;20.50;35.40
15543;DHT22;7873;52.230;12.856;2023-03-02T13:54:28;20.50;35.60
15543;DHT22;7873;52.230;12.856;2023-03-02T13:56:57;20.40;35.60
15543;DHT22;7873;52.230;12.856;2023-03-02T13:59:26;20.40;35.70
15543;DHT22;7873;52.230;12.856;2023-03-02T14:01:53;20.30;35.70
15543;DHT22;7873;52.230;12.856;2023-03-02T14:04:21;20.30;35.70
15543;DHT22;7873;52.230;12.856;2023-03-02T14:06:48;20.40;35.60
15543;DHT22;7873;52.230;12.856;2023-03-02T14:09:17;20.40;35.40
15543;DHT22;7873;52.230;12.856;2023-03-02T14:11:44;20.50;35.30
15543;DHT22;7873;52.230;12.856;2023-03-02T14:14:14;20.60;35.10
15543;DHT22;7873;52.230;12.856;2023-03-02T14:16:44;20.60;34.90
15543;DHT22;7873;52.230;12.856;2023-03-02T14:19:11;20.70;34.80
15543;DHT22;7873;52.230;12.856;2023-03-02T14:21:40;20.70;34.70
15543;DHT22;7873;52.230;12.856;2023-03-02T14:24:08;20.70;34.70
15543;DHT22;7873;52.230;12.856;2023-03-02T14:26:36;20.60;34.60
15543;DHT22;7873;52.230;12.856;2023-03-02T14:29:06;20.70;34.70
15543;DHT22;7873;52.230;12.856;2023-03-02T14:31:41;20.70;34.50
15543;DHT22;7873;52.230;12.856;2023-03-02T14:34:09;20.70;34.50
15543;DHT22;7873;52.230;12.856;2023-03-02T14:36:37;20.80;34.40
15543;DHT22;7873;52.230;12.856;2023-03-02T14:39:06;20.80;34.30
15543;DHT22;7873;52.230;12.856;2023-03-02T14:41:45;20.80;34.30
15543;DHT22;7873;52.230;12.856;2023-03-02T14:44:12;20.90;34.20
15543;DHT22;7873;52.230;12.856;2023-03-02T14:46:39;20.80;34.20
15543;DHT22;7873;52.230;12.856;2023-03-02T14:49:07;20.80;34.10
15543;DHT22;7873;52.230;12.856;2023-03-02T14:51:34;20.80;34.30
15543;DHT22;7873;52.230;12.856;2023-03-02T14:54:04;20.80;34.20
15543;DHT22;7873;52.230;12.856;2023-03-02T14:56:33;20.80;34.10
15543;DHT22;7873;52.230;12.856;2023-03-02T14:59:01;20.90;34.00
15543;DHT22;7873;52.230;12.856;2023-03-02T15:01:28;21.00;33.90
15543;DHT22;7873;52.230;12.856;2023-03-02T15:03:55;20.90;33.80
15543;DHT22;7873;52.230;12.856;2023-03-02T15:06:24;21.00;33.80
15543;DHT22;7873;52.230;12.856;2023-03-02T15:08:52;21.00;33.80
15543;DHT22;7873;52.230;12.856;2023-03-02T15:11:20;21.00;33.60
15543;DHT22;7873;52.230;12.856;2023-03-02T15:13:46;20.70;33.30
15543;DHT22;7873;52.230;12.856;2023-03-02T15:16:14;19.90;32.90
15543;DHT22;7873;52.230;12.856;2023-03-02T15:18:41;19.80;33.90
15543;DHT22;7873;52.230;12.856;2023-03-02T15:21:08;19.70;34.50
15543;DHT22;7873;52.230;12.856;2023-03-02T15:23:40;19.30;35.40
15543;DHT22;7873;52.230;12.856;2023-03-02T15:26:07;19.30;34.70
15543;DHT22;7873;52.230;12.856;2023-03-02T15:28:35;19.30;34.80
15543;DHT22;7873;52.230;12.856;2023-03-02T15:31:05;19.20;35.00
15543;DHT22;7873;52.230;12.856;2023-03-02T15:33:33;19.10;34.80
15543;DHT22;7873;52.230;12.856;2023-03-02T15:36:00;19.20;34.70
15543;DHT22;7873;52.230;12.856;2023-03-02T15:38:27;19.10;35.00
15543;DHT22;7873;52.230;12.856;2023-03-02T15:40:53;19.20;34.20
15543;DHT22;7873;52.230;12.856;2023-03-02T15:43:20;19.10;35.00
15543;DHT22;7873;52.230;12.856;2023-03-02T15:45:48;19.20;34.10
15543;DHT22;7873;52.230;12.856;2023-03-02T15:48:15;19.20;34.00
15543;DHT22;7873;52.230;12.856;2023-03-02T15:50:43;19.20;33.80
15543;DHT22;7873;52.230;12.856;2023-03-02T15:53:10;19.30;34.00